createdAt,value
2022-10-19T00:01:11.459Z,100650.70
2022-10-19T00:04:16.344Z,100650.14
2022-10-19T00:07:20.066Z,100655.13
2022-10-19T00:10:22.831Z,100649.64
2022-10-19T00:13:25.706Z,100654.30
2022-10-19T00:16:31.896Z,100657.13
2022-10-19T00:19:34.923Z,100651.45
2022-10-19T00:22:37.790Z,100656.67
2022-10-19T00:25:41.902Z,100661.46
2022-10-19T00:28:45.308Z,100659.14
2022-10-19T00:31:50.598Z,100662.50
2022-10-19T00:34:53.670Z,100664.88
2022-10-19T00:37:56.648Z,100662.23
2022-10-19T00:40:59.413Z,100659.31
2022-10-19T00:44:07.045Z,100659.39
2022-10-19T00:47:10.061Z,100659.01
2022-10-19T00:50:15.337Z,100663.70
2022-10-19T00:53:18.572Z,100663.00
2022-10-19T00:56:25.644Z,100663.64
2022-10-19T00:59:31.975Z,100660.52
2022-10-19T01:02:36.177Z,100657.83
2022-10-19T01:05:39.890Z,100652.33
2022-10-19T01:08:43.661Z,100654.02
2022-10-19T01:11:56.250Z,100652.46
2022-10-19T01:15:27.676Z,100651.50
2022-10-19T01:18:58.584Z,100652.50
2022-10-19T01:22:12.720Z,100647.90
2022-10-19T01:25:38.500Z,100649.53
2022-10-19T01:29:00.802Z,100648.77
2022-10-19T01:32:13.378Z,100650.03
2022-10-19T01:35:44.012Z,100648.43
2022-10-19T01:39:02.641Z,100651.85
2022-10-19T01:42:30.172Z,100646.67
2022-10-19T01:45:42.147Z,100646.17
2022-10-19T01:48:52.386Z,100644.95
2022-10-19T01:52:00.637Z,100651.08
2022-10-19T01:55:05.390Z,100646.54
2022-10-19T01:58:12.619Z,100641.72
2022-10-19T02:01:19.831Z,100639.20
2022-10-19T02:04:24.162Z,100640.66
2022-10-19T02:07:28.178Z,100639.42
2022-10-19T02:10:35.439Z,100633.25
2022-10-19T02:13:41.475Z,100626.02
2022-10-19T02:16:52.804Z,100629.55
2022-10-19T02:19:56.085Z,100629.30
2022-10-19T02:22:58.959Z,100629.77
2022-10-19T02:26:02.436Z,100625.86
2022-10-19T02:29:05.818Z,100621.28
2022-10-19T02:32:09.819Z,100616.09
2022-10-19T02:35:14.833Z,100617.34
2022-10-19T02:38:21.798Z,100618.84
2022-10-19T02:41:31.146Z,100610.95
2022-10-19T02:44:42.578Z,100614.52
2022-10-19T02:47:51.187Z,100617.14
2022-10-19T02:50:53.951Z,100614.41
2022-10-19T02:53:58.990Z,100613.69
2022-10-19T02:57:19.559Z,100610.97
2022-10-19T03:00:22.511Z,100611.31
2022-10-19T03:03:25.489Z,100618.45
2022-10-19T03:06:28.353Z,100615.79
2022-10-19T03:09:32.460Z,100615.14
2022-10-19T03:12:35.323Z,100616.54
2022-10-19T03:15:38.466Z,100614.73
2022-10-19T03:18:41.369Z,100612.67
2022-10-19T03:21:44.545Z,100612.78
2022-10-19T03:24:47.519Z,100612.77
2022-10-19T03:27:50.388Z,100611.69
2022-10-19T03:30:53.563Z,100613.92
2022-10-19T03:33:56.535Z,100620.61
2022-10-19T03:36:59.617Z,100612.95
2022-10-19T03:40:02.696Z,100615.53
2022-10-19T03:43:05.763Z,100621.90
2022-10-19T03:46:09.550Z,100621.77
2022-10-19T03:49:12.730Z,100627.58
2022-10-19T03:52:15.802Z,100628.05
2022-10-19T03:55:18.984Z,100632.65
2022-10-19T03:58:21.952Z,100631.27
2022-10-19T04:01:29.065Z,100634.21
2022-10-19T04:04:32.028Z,100637.09
2022-10-19T04:07:35.083Z,100637.73
2022-10-19T04:10:38.244Z,100635.34
2022-10-19T04:13:41.628Z,100634.96
2022-10-19T04:16:44.601Z,100633.72
2022-10-19T04:19:47.466Z,100631.31
2022-10-19T04:22:52.892Z,100633.61
2022-10-19T04:26:03.670Z,100638.58
2022-10-19T04:29:06.888Z,100646.37
2022-10-19T04:32:09.898Z,100646.76
2022-10-19T04:35:12.976Z,100647.73
2022-10-19T04:38:16.353Z,100639.42
2022-10-19T04:41:21.174Z,100638.17
2022-10-19T04:47:32.154Z,100641.73
2022-10-19T04:50:35.506Z,100642.17
2022-10-19T04:53:42.487Z,100647.41
2022-10-19T04:56:45.440Z,100646.27
2022-10-19T04:59:48.313Z,100652.02
2022-10-19T05:02:51.183Z,100648.73
2022-10-19T05:05:54.156Z,100648.49
2022-10-19T05:08:57.442Z,100648.23
2022-10-19T05:12:00.505Z,100653.56
2022-10-19T05:15:04.399Z,100652.96
2022-10-19T05:18:07.782Z,100648.58
2022-10-19T05:21:13.439Z,100647.21
2022-10-19T05:24:16.283Z,100647.77
2022-10-19T05:27:19.261Z,100657.23
2022-10-19T05:30:22.344Z,100659.79
2022-10-19T05:33:25.251Z,100665.90
2022-10-19T05:36:34.668Z,100664.92
2022-10-19T05:39:37.697Z,100665.02
2022-10-19T05:42:46.507Z,100663.04
2022-10-19T05:45:51.351Z,100669.30
2022-10-19T05:48:56.745Z,100676.32
2022-10-19T05:52:01.657Z,100682.65
2022-10-19T05:55:05.971Z,100689.17
2022-10-19T05:58:08.729Z,100689.10
2022-10-19T06:01:12.314Z,100690.38
2022-10-19T06:04:18.556Z,100694.66
2022-10-19T06:07:21.643Z,100703.32
2022-10-19T06:10:24.484Z,100703.45
2022-10-19T06:13:27.482Z,100700.94
2022-10-19T06:16:33.742Z,100699.46
2022-10-19T06:19:37.113Z,100704.80
2022-10-19T06:22:39.980Z,100712.33
2022-10-19T06:25:42.950Z,100715.80
2022-10-19T06:28:46.642Z,100727.88
2022-10-19T06:31:49.610Z,100723.11
2022-10-19T06:34:56.352Z,100729.38
2022-10-19T06:38:00.673Z,100728.65
2022-10-19T06:41:04.472Z,100736.59
2022-10-19T06:44:07.437Z,100739.40
2022-10-19T06:47:10.263Z,100734.84
2022-10-19T06:50:13.583Z,100734.14
2022-10-19T06:53:16.456Z,100737.33
2022-10-19T06:56:44.730Z,100746.36
2022-10-19T06:59:50.163Z,100745.33
2022-10-19T07:02:56.281Z,100751.41
2022-10-19T07:06:01.607Z,100758.52
2022-10-19T07:09:04.676Z,100755.54
2022-10-19T07:12:08.778Z,100754.48
2022-10-19T07:15:11.746Z,100757.14
2022-10-19T07:18:15.644Z,100754.23
2022-10-19T07:21:20.184Z,100753.55
2022-10-19T07:24:23.231Z,100756.05
2022-10-19T07:27:26.197Z,100755.31
2022-10-19T07:30:29.169Z,100753.52
2022-10-19T07:33:32.039Z,100756.73
2022-10-19T07:36:36.150Z,100758.46
2022-10-19T07:39:39.513Z,100760.42
2022-10-19T07:42:42.301Z,100763.05
2022-10-19T07:45:45.155Z,100769.78
2022-10-19T07:48:48.330Z,100765.52
2022-10-19T07:51:54.344Z,100767.86
2022-10-19T07:54:57.344Z,100768.62
2022-10-19T07:58:02.275Z,100772.43
2022-10-19T08:01:18.053Z,100777.48
2022-10-19T08:07:44.038Z,100759.13
2022-10-19T08:10:48.992Z,100759.16
2022-10-19T08:13:53.467Z,100756.02
2022-10-19T08:16:56.631Z,100755.19
2022-10-19T08:19:59.510Z,100764.36
2022-10-19T08:23:02.470Z,100765.02
2022-10-19T08:26:05.749Z,100765.62
2022-10-19T08:29:17.184Z,100768.66
2022-10-19T08:32:20.416Z,100770.67
2022-10-19T08:35:23.380Z,100772.19
2022-10-19T08:38:28.336Z,100783.81
2022-10-19T08:41:57.571Z,100776.98
2022-10-19T08:45:33.096Z,100780.92
2022-10-19T08:48:39.784Z,100782.66
2022-10-19T08:51:44.951Z,100774.69
2022-10-19T08:55:01.044Z,100769.92
2022-10-19T08:58:18.725Z,100770.36
2022-10-19T09:01:33.798Z,100786.77
2022-10-19T09:04:44.629Z,100793.30
2022-10-19T09:07:53.764Z,100782.32
2022-10-19T09:10:57.694Z,100791.63
2022-10-19T09:14:14.224Z,100784.23
2022-10-19T09:17:20.056Z,100789.94
2022-10-19T09:20:31.625Z,100796.66
2022-10-19T09:23:40.022Z,100790.29
2022-10-19T09:26:47.283Z,100797.25
2022-10-19T09:29:57.731Z,100811.13
2022-10-19T09:33:02.230Z,100812.98
2022-10-19T09:36:07.783Z,100806.52
2022-10-19T09:39:14.523Z,100807.23
2022-10-19T09:42:33.759Z,100802.76
2022-10-19T09:46:01.073Z,100803.79
2022-10-19T09:49:05.952Z,100802.48
2022-10-19T09:52:26.360Z,100795.17
2022-10-19T09:55:43.338Z,100804.20
2022-10-19T09:58:54.633Z,100809.04
2022-10-19T10:02:06.732Z,100810.95
2022-10-19T10:05:15.726Z,100809.73
2022-10-19T10:08:23.171Z,100808.39
2022-10-19T10:11:34.222Z,100811.63
2022-10-19T10:14:40.094Z,100811.66
2022-10-19T10:17:47.370Z,100811.71
2022-10-19T10:21:15.204Z,100818.30
2022-10-19T10:24:20.651Z,100810.05
2022-10-19T10:27:36.881Z,100815.13
2022-10-19T10:30:40.189Z,100815.94
2022-10-19T10:33:45.561Z,100814.52
2022-10-19T10:36:51.859Z,100813.45
2022-10-19T10:40:00.361Z,100813.46
2022-10-19T10:43:17.042Z,100800.33
2022-10-19T10:46:24.592Z,100800.37
2022-10-19T10:49:32.712Z,100796.22
2022-10-19T10:52:37.504Z,100801.39
2022-10-19T10:55:40.804Z,100812.48
2022-10-19T10:59:06.904Z,100813.17
2022-10-19T11:02:42.910Z,100811.02
2022-10-19T11:05:56.542Z,100808.51
2022-10-19T11:09:09.036Z,100803.84
2022-10-19T11:12:16.613Z,100811.02
2022-10-19T11:15:26.471Z,100805.02
2022-10-19T11:18:38.109Z,100811.69
2022-10-19T11:21:54.357Z,100807.58
2022-10-19T11:25:09.947Z,100810.84
2022-10-19T11:28:45.870Z,100812.91
2022-10-19T11:31:51.525Z,100811.64
2022-10-19T11:35:12.998Z,100817.83
2022-10-19T11:38:30.210Z,100809.03
2022-10-19T11:41:41.760Z,100821.95
2022-10-19T11:45:06.735Z,100818.39
2022-10-19T11:48:41.717Z,100813.91
2022-10-19T11:51:52.087Z,100828.54
2022-10-19T11:55:01.501Z,100838.14
2022-10-19T11:58:40.187Z,100827.10
2022-10-19T12:01:52.612Z,100820.31
2022-10-19T12:05:25.071Z,100821.14
2022-10-19T12:08:36.687Z,100818.20
2022-10-19T12:11:58.085Z,100816.67
2022-10-19T12:15:17.321Z,100814.82
2022-10-19T12:18:39.435Z,100816.55
2022-10-19T12:21:43.834Z,100815.68
2022-10-19T12:24:47.969Z,100814.84
2022-10-19T12:27:52.034Z,100818.11
2022-10-19T12:30:55.823Z,100816.04
2022-10-19T12:34:20.899Z,100817.20
2022-10-19T12:37:37.949Z,100822.21
2022-10-19T12:40:51.505Z,100818.38
2022-10-19T12:44:33.776Z,100816.30
2022-10-19T12:47:37.066Z,100812.65
2022-10-19T12:50:49.452Z,100810.58
2022-10-19T12:54:08.717Z,100803.13
2022-10-19T12:57:27.928Z,100793.00
2022-10-19T13:00:33.085Z,100789.86
2022-10-19T13:03:41.453Z,100780.67
2022-10-19T13:06:50.320Z,100780.03
2022-10-19T13:10:01.959Z,100774.14
2022-10-19T13:13:05.098Z,100774.98
2022-10-19T13:16:29.775Z,100772.96
2022-10-19T13:19:33.040Z,100765.19
2022-10-19T13:22:36.274Z,100764.18
2022-10-19T13:25:41.952Z,100772.22
2022-10-19T13:28:56.025Z,100775.39
2022-10-19T13:32:37.953Z,100772.95
2022-10-19T13:35:41.321Z,100784.60
2022-10-19T13:38:56.674Z,100789.61
2022-10-19T13:41:59.852Z,100794.16
2022-10-19T13:45:03.138Z,100794.77
2022-10-19T13:48:20.661Z,100795.89
2022-10-19T13:51:41.521Z,100798.66
2022-10-19T13:55:15.971Z,100799.23
2022-10-19T13:58:34.535Z,100791.92
2022-10-19T14:02:13.221Z,100792.07
2022-10-19T14:05:29.520Z,100791.89
2022-10-19T14:08:51.099Z,100783.78
2022-10-19T14:12:06.920Z,100782.13
2022-10-19T14:15:22.845Z,100782.17
2022-10-19T14:18:30.002Z,100780.98
2022-10-19T14:21:37.045Z,100784.31
2022-10-19T14:24:40.029Z,100786.19
2022-10-19T14:27:43.319Z,100780.45
2022-10-19T14:30:55.492Z,100773.39
2022-10-19T14:34:02.763Z,100783.40
2022-10-19T14:37:14.579Z,100787.77
2022-10-19T14:40:28.669Z,100783.77
2022-10-19T14:43:33.990Z,100783.63
2022-10-19T14:46:36.962Z,100783.90
2022-10-19T14:49:39.931Z,100782.58
2022-10-19T14:52:43.725Z,100779.23
2022-10-19T14:55:49.210Z,100779.30
2022-10-19T14:59:03.891Z,100780.61
2022-10-19T15:02:24.338Z,100778.20
2022-10-19T15:05:31.456Z,100777.77
2022-10-19T15:08:43.917Z,100778.10
2022-10-19T15:11:49.976Z,100774.84
2022-10-19T15:14:53.240Z,100776.64
2022-10-19T15:18:02.331Z,100775.48
2022-10-19T15:21:14.471Z,100776.42
2022-10-19T15:24:27.673Z,100773.71
2022-10-19T15:27:34.807Z,100778.14
2022-10-19T15:30:37.779Z,100778.20
2022-10-19T15:33:45.367Z,100781.56
2022-10-19T15:37:01.735Z,100778.56
2022-10-19T15:40:29.166Z,100776.03
2022-10-19T15:43:34.702Z,100777.02
2022-10-19T15:46:46.778Z,100778.54
2022-10-19T15:50:03.669Z,100780.95
2022-10-19T15:53:15.975Z,100776.36
2022-10-19T15:56:19.539Z,100786.70
2022-10-19T15:59:27.212Z,100788.61
2022-10-19T16:02:30.183Z,100784.64
2022-10-19T16:05:35.173Z,100788.13
2022-10-19T16:08:38.581Z,100786.48
2022-10-19T16:11:41.667Z,100792.29
2022-10-19T16:14:44.854Z,100793.48
2022-10-19T16:17:58.443Z,100794.75
2022-10-19T16:21:02.046Z,100800.25
2022-10-19T16:24:05.524Z,100805.79
2022-10-19T16:27:08.901Z,100811.95
2022-10-19T16:30:12.734Z,100808.66
2022-10-19T16:33:15.872Z,100808.95
2022-10-19T16:36:21.714Z,100812.35
2022-10-19T16:39:25.908Z,100821.08
2022-10-19T16:42:30.564Z,100824.42
2022-10-19T16:45:33.917Z,100824.17
2022-10-19T16:48:37.281Z,100828.14
2022-10-19T16:51:41.688Z,100827.54
2022-10-19T16:54:44.570Z,100827.20
2022-10-19T16:57:47.639Z,100829.48
2022-10-19T17:00:50.604Z,100835.93
2022-10-19T17:03:54.727Z,100839.52
2022-10-19T17:06:57.982Z,100842.12
2022-10-19T17:10:00.865Z,100842.36
2022-10-19T17:13:03.924Z,100845.69
2022-10-19T17:16:07.989Z,100851.16
2022-10-19T17:19:11.712Z,100856.15
2022-10-19T17:22:14.785Z,100860.20
2022-10-19T17:25:17.967Z,100861.23
2022-10-19T17:28:23.010Z,100863.42
2022-10-19T17:31:29.127Z,100864.87
2022-10-19T17:34:32.102Z,100871.42
2022-10-19T17:37:35.403Z,100870.31
2022-10-19T17:40:39.374Z,100869.96
2022-10-19T17:43:44.184Z,100870.62
2022-10-19T17:46:48.799Z,100870.64
2022-10-19T17:49:51.665Z,100872.61
2022-10-19T17:52:54.654Z,100873.75
2022-10-19T17:56:02.524Z,100878.27
2022-10-19T17:59:09.350Z,100879.73
2022-10-19T18:02:12.564Z,100883.63
2022-10-19T18:05:15.855Z,100885.91
2022-10-19T18:08:18.709Z,100891.98
2022-10-19T18:11:34.867Z,100891.92
2022-10-19T18:14:37.830Z,100892.89
2022-10-19T18:17:40.796Z,100894.27
2022-10-19T18:20:43.774Z,100894.31
2022-10-19T18:23:47.606Z,100893.42
2022-10-19T18:26:51.484Z,100897.30
2022-10-19T18:29:54.527Z,100895.02
2022-10-19T18:32:57.501Z,100900.52
2022-10-19T18:36:00.371Z,100896.40
2022-10-19T18:39:05.810Z,100895.61
2022-10-19T18:42:12.287Z,100897.65
2022-10-19T18:45:15.429Z,100899.34
2022-10-19T18:48:18.607Z,100901.66
2022-10-19T18:51:23.334Z,100902.97
2022-10-19T18:54:28.203Z,100902.93
2022-10-19T18:57:31.984Z,100903.73
2022-10-19T19:00:35.506Z,100903.52
2022-10-19T19:03:40.986Z,100910.52
2022-10-19T19:06:44.533Z,100911.33
2022-10-19T19:09:47.798Z,100913.33
2022-10-19T19:12:52.535Z,100912.31
2022-10-19T19:16:00.601Z,100912.81
2022-10-19T19:19:04.911Z,100913.33
2022-10-19T19:22:08.849Z,100914.41
2022-10-19T19:25:11.936Z,100916.16
2022-10-19T19:28:14.746Z,100909.98
2022-10-19T19:31:17.919Z,100910.43
2022-10-19T19:34:20.866Z,100913.39
2022-10-19T19:37:24.180Z,100911.63
2022-10-19T19:40:27.250Z,100910.07
2022-10-19T19:43:33.080Z,100912.88
2022-10-19T19:46:36.361Z,100911.02
2022-10-19T19:49:39.231Z,100914.70
2022-10-19T19:52:42.307Z,100909.64
2022-10-19T19:55:49.517Z,100911.52
2022-10-19T19:58:58.381Z,100909.17
2022-10-19T20:02:02.134Z,100909.84
2022-10-19T20:05:05.868Z,100908.15
2022-10-19T20:08:09.549Z,100909.90
2022-10-19T20:11:14.369Z,100911.80
2022-10-19T20:14:18.983Z,100915.23
2022-10-19T20:17:24.102Z,100918.28
2022-10-19T20:20:27.076Z,100924.08
2022-10-19T20:23:30.680Z,100932.43
2022-10-19T20:26:34.038Z,100935.98
2022-10-19T20:29:36.908Z,100939.50
2022-10-19T20:32:39.792Z,100940.30
2022-10-19T20:35:42.651Z,100942.65
2022-10-19T20:38:48.688Z,100946.91
2022-10-19T20:41:51.759Z,100951.04
2022-10-19T20:44:55.755Z,100949.77
2022-10-19T20:47:58.631Z,100950.79
2022-10-19T20:51:13.578Z,100950.48
2022-10-19T20:54:16.543Z,100952.37
2022-10-19T20:57:19.515Z,100949.58
2022-10-19T21:00:22.695Z,100945.36
2022-10-19T21:03:25.567Z,100941.72
2022-10-19T21:06:30.303Z,100941.61
2022-10-19T21:09:33.628Z,100944.03
2022-10-19T21:12:36.860Z,100944.54
2022-10-19T21:15:40.115Z,100947.23
2022-10-19T21:18:44.320Z,100949.74
2022-10-19T21:21:50.775Z,100952.76
2022-10-19T21:24:53.743Z,100951.16
2022-10-19T21:27:56.713Z,100952.90
2022-10-19T21:31:07.358Z,100954.64
2022-10-19T21:34:13.991Z,100959.04
2022-10-19T21:37:16.987Z,100959.92
2022-10-19T21:40:19.860Z,100956.92
2022-10-19T21:43:24.376Z,100955.02
2022-10-19T21:46:27.649Z,100953.88
2022-10-19T21:49:30.517Z,100951.02
2022-10-19T21:52:33.487Z,100953.85
2022-10-19T21:55:37.281Z,100958.26
2022-10-19T21:58:48.233Z,100957.47
2022-10-19T22:01:51.406Z,100949.75
2022-10-19T22:04:54.383Z,100952.39
2022-10-19T22:07:57.352Z,100947.27
2022-10-19T22:11:09.336Z,100949.30
2022-10-19T22:14:16.109Z,100943.60
2022-10-19T22:17:19.780Z,100945.17
2022-10-19T22:20:23.015Z,100942.02
2022-10-19T22:23:25.927Z,100941.38
2022-10-19T22:26:35.394Z,100945.15
2022-10-19T22:29:38.325Z,100944.70
2022-10-19T22:32:41.292Z,100940.38
2022-10-19T22:35:56.980Z,100941.83
2022-10-19T22:39:00.233Z,100943.59
2022-10-19T22:42:03.414Z,100945.41
2022-10-19T22:45:07.302Z,100943.14
2022-10-19T22:48:10.172Z,100944.55
2022-10-19T22:51:13.248Z,100940.62
2022-10-19T22:54:16.954Z,100939.34
2022-10-19T22:57:20.215Z,100933.95
2022-10-19T23:00:24.009Z,100934.34
2022-10-19T23:03:27.189Z,100934.41
2022-10-19T23:06:30.577Z,100931.79
2022-10-19T23:09:33.536Z,100926.02
2022-10-19T23:12:36.410Z,100922.39
2022-10-19T23:15:43.124Z,100918.34
2022-10-19T23:18:46.956Z,100919.37
2022-10-19T23:21:49.829Z,100912.80
2022-10-19T23:24:53.045Z,100912.85
2022-10-19T23:27:55.974Z,100904.30
2022-10-19T23:31:04.783Z,100906.27
2022-10-19T23:34:12.054Z,100901.94
2022-10-19T23:37:15.343Z,100901.17
2022-10-19T23:40:18.306Z,100901.25
2022-10-19T23:43:21.376Z,100908.66
2022-10-19T23:46:24.459Z,100912.40
2022-10-19T23:49:27.425Z,100914.95
2022-10-19T23:52:30.297Z,100905.61
2022-10-19T23:55:34.624Z,100907.39
2022-10-19T23:58:37.776Z,100908.06
